• Join FlightAware (Why Join?)
  • Login
  • US Flag 
06:15AM EDT


 

Airport Tracker/Info


-or-


 

Live Flight TrackerFlight Track Log ✈ AFL150 ✈ 14-Apr-2014 ✈ UUEE / SVO - MUHA / HAV

Flight Track Log - Related Links

Times and Time Zones

All times are in EDT time to prevent confusion due to time zone crossing. See the AFL150 flight status page for this flight to view local times or setup timezone preferences in your user account.

Time Position Orientation Groundspeed Altitude Reporting Facility
EDT Latitude Longitude Course Direction KTS MPH feet Rate Location/Type
06:26AM 56.3591 36.5323 310° West  Level FlightAware Approximate
06:27AM 56.4389 36.3571 310° West  Level FlightAware Approximate
06:28AM 56.5184 36.1811 309° West  Level FlightAware Approximate
06:29AM 56.5977 36.0045 309° West  Level FlightAware Approximate
06:30AM 56.6767 35.8271 309° West  Level FlightAware Approximate
06:31AM 56.7555 35.6489 309° West  Level FlightAware Approximate
06:32AM 56.8340 35.4701 309° West  Level FlightAware Approximate
06:33AM 56.9123 35.2904 309° West  Level FlightAware Approximate
06:34AM 56.9903 35.1100 308° West  Level FlightAware Approximate
06:35AM 57.0680 34.9288 308° West  Level FlightAware Approximate
06:36AM 57.1455 34.7469 308° West  Level FlightAware Approximate
06:37AM 57.2227 34.5643 308° West  Level FlightAware Approximate
06:38AM 57.2996 34.3808 308° West  Level FlightAware Approximate
06:39AM 57.3763 34.1966 308° West  Level FlightAware Approximate
06:40AM 57.3830 34.1717 306° West  Level FlightAware Approximate
06:41AM 57.4561 33.9820 306° West  Level FlightAware Approximate
06:42AM 57.5288 33.7916 305° West  Level FlightAware Approximate
06:43AM 57.6012 33.6004 305° West  Level FlightAware Approximate
06:44AM 57.6734 33.4085 305° West  Level FlightAware Approximate
06:45AM 57.7452 33.2157 305° West  Level FlightAware Approximate
06:46AM 57.8168 33.0223 305° West  Level FlightAware Approximate
06:47AM 57.8880 32.8280 305° West  Level FlightAware Approximate
06:48AM 57.9590 32.6330 305° West  Level FlightAware Approximate
06:49AM 58.0297 32.4372 304° West  Level FlightAware Approximate
06:50AM 58.1000 32.2406 304° West  Level FlightAware Approximate
06:51AM 58.1701 32.0433 304° West  Level FlightAware Approximate
06:52AM 58.2398 31.8451 304° West  Level FlightAware Approximate
06:53AM 58.3093 31.6462 304° West  Level FlightAware Approximate
06:54AM 58.3784 31.4466 303° West  Level FlightAware Approximate
06:55AM 58.4473 31.2461 303° West  Level FlightAware Approximate
06:56AM 58.5158 31.0448 303° West  Level FlightAware Approximate
06:57AM 58.5840 30.8428 303° West  Level FlightAware Approximate
06:58AM 58.6519 30.6400 303° West  Level FlightAware Approximate
06:59AM 58.7194 30.4364 303° West  Level FlightAware Approximate
07:00AM 58.7867 30.2320 302° West  Level FlightAware Approximate
07:01AM 58.8536 30.0268 302° West  Level FlightAware Approximate
07:02AM 58.9201 29.8208 302° West  Level FlightAware Approximate
07:03AM 58.9863 29.6139 302° West  Level FlightAware Approximate
07:04AM 59.0521 29.4062 302° West  Level FlightAware Approximate
07:05AM 59.1176 29.1977 302° West  Level FlightAware Approximate
07:06AM 59.1827 28.9884 301° West  Level FlightAware Approximate
07:07AM 59.2475 28.7783 301° West  Level FlightAware Approximate
07:08AM 59.3120 28.5674 301° West  Level FlightAware Approximate
07:09AM 59.3761 28.3557 301° West  Level FlightAware Approximate
07:10AM 59.4399 28.1432 301° West  Level FlightAware Approximate
07:11AM 59.5033 27.9299 300° West  Level FlightAware Approximate
07:12AM 59.5664 27.7158 300° West  Level FlightAware Approximate
07:13AM 59.6291 27.5009 300° West  Level FlightAware Approximate
07:14AM 59.6915 27.2852 300° West  Level FlightAware Approximate
07:15AM 59.7536 27.0687 300° West  Level FlightAware Approximate
07:16AM 59.8152 26.8514 300° West  Level FlightAware Approximate
07:17AM 59.8765 26.6333 299° West  Level FlightAware Approximate
07:18AM 59.9375 26.4144 299° West  Level FlightAware Approximate
07:19AM 59.9981 26.1947 299° West  Level FlightAware Approximate
07:20AM 60.0583 25.9742 299° West  Level FlightAware Approximate
07:21AM 60.1181 25.7528 299° West  Level FlightAware Approximate
07:22AM 60.1776 25.5307 298° West  Level FlightAware Approximate
07:23AM 60.2367 25.3078 298° West  Level FlightAware Approximate
07:24AM 60.2955 25.0841 298° West  Level FlightAware Approximate
07:24AM 59.9305 26.4687 286° West 464 534 33,000  Level FlightAware ADS-B (EFHN)
07:25AM 60.3539 24.8596 298° West  Level FlightAware Approximate
07:26AM 60.4119 24.6344 298° West  Level FlightAware Approximate
07:26AM 60.0176 26.0973 304° West 470 541 33,000  Level FlightAware ADS-B (EFHN)
07:27AM 60.0656 25.9733 310° West 472 543 33,000  Level FlightAware ADS-B (EFHN)
07:27AM 60.1135 25.8755 316° Northwest 475 547 33,000  Level FlightAware ADS-B (EFHN)
07:28AM 60.1615 25.7854 310° West 471 542 33,000  Level FlightAware ADS-B (EFHN)
07:28AM 60.2114 25.6451 304° West 469 540 33,000  Level FlightAware ADS-B (EFHN)
07:29AM 60.2489 25.5275 299° West 468 539 33,000  Level FlightAware ADS-B (EFHN)
07:29AM 60.2859 25.3669 294° West 468 539 33,000  Level FlightAware ADS-B (EFHN)
07:30AM 60.3079 25.2676 294° West 470 541 33,000  Level FlightAware ADS-B (EFHN)
07:31AM 60.3471 25.0934 295° West 472 543 33,000  Level FlightAware ADS-B (EFHN)
07:31AM 60.3814 24.9436 295° West 473 544 33,000  Level FlightAware ADS-B (EFHN)
07:32AM 60.4205 24.7706 294° West 474 545 33,000  Level FlightAware ADS-B (EFHN)
07:32AM 60.4468 24.6510 294° West 473 544 33,000  Level FlightAware ADS-B (EFHN)
07:34AM 60.5408 24.2134 293° West 469 540 33,000  Level FlightAware ADS-B (EFHN)
07:35AM 60.5646 24.1015 293° West 471 542 33,000  Level FlightAware ADS-B (EFHN)
07:35AM 60.6040 23.9489 301° West 473 544 33,000  Level FlightAware ADS-B (EFHN)
07:36AM 60.6430 23.8132 300° West 473 544 33,000  Level FlightAware ADS-B (EFHN)
07:37AM 60.6858 23.6634 300° West 473 544 33,000  Level FlightAware ADS-B (EFHN)
07:37AM 60.7190 23.5470 300° West 472 543 33,000  Level FlightAware ADS-B (EFHN)
07:38AM 60.7609 23.3991 300° West 469 540 33,000  Level FlightAware ADS-B (EFHN)
07:40AM 60.8932 22.9263 300° West 464 534 33,100 240 Climbing FlightAware ADS-B (EFHN)
07:41AM 60.9359 22.7712 300° West 465 535 33,700 180 Climbing FlightAware ADS-B (EFHN)
07:44AM 61.1462 21.9929 300° West 465 535 34,000 60 Climbing FlightAware ADS-B (ESKB)
07:45AM 61.2390 21.6398 299° West 471 542 34,000  Level FlightAware ADS-B (EFHN)
07:46AM 61.2322 21.6066 295° West  Level FlightAware Approximate
07:46AM 61.1462 21.9929 299° West 471 542 34,000  Level FlightAware ADS-B (ESKB)
07:49AM 61.2573 21.4585 294° West  Level Estimated
07:50AM 61.3091 21.2205 295° West  Level FlightAware Approximate
07:51AM 61.3606 20.9818 294° West  Level FlightAware Approximate
07:52AM 61.4116 20.7422 294° West  Level FlightAware Approximate
07:53AM 61.4622 20.5019 294° West  Level FlightAware Approximate
07:54AM 61.5124 20.2608 294° West  Level FlightAware Approximate
07:55AM 61.5621 20.0189 293° West  Level FlightAware Approximate
07:56AM 61.6114 19.7763 293° West  Level FlightAware Approximate
07:57AM 61.6603 19.5329 293° West  Level FlightAware Approximate
07:58AM 61.7088 19.2887 293° West  Level FlightAware Approximate
07:59AM 61.7568 19.0438 293° West  Level FlightAware Approximate
08:00AM 61.8044 18.7981 292° West  Level FlightAware Approximate
08:01AM 61.8515 18.5516 292° West  Level FlightAware Approximate
08:02AM 61.8982 18.3044 292° West  Level FlightAware Approximate
08:03AM 61.9445 18.0564 292° West  Level FlightAware Approximate
08:04AM 61.9903 17.8077 292° West  Level FlightAware Approximate
08:05AM 62.0357 17.5582 291° West  Level FlightAware Approximate
08:06AM 62.0806 17.3080 291° West  Level FlightAware Approximate
08:07AM 62.1250 17.0571 291° West  Level FlightAware Approximate
08:08AM 62.1690 16.8054 291° West  Level FlightAware Approximate
08:09AM 62.2126 16.5530 290° West  Level FlightAware Approximate
08:10AM 62.2557 16.2998 290° West  Level FlightAware Approximate
08:11AM 62.2983 16.0460 290° West  Level FlightAware Approximate
08:12AM 62.3404 15.7914 290° West  Level FlightAware Approximate
08:13AM 62.3821 15.5361 290° West  Level FlightAware Approximate
08:14AM 62.4234 15.2801 289° West  Level FlightAware Approximate
08:15AM 62.4641 15.0234 289° West  Level FlightAware Approximate
08:16AM 62.5044 14.7660 289° West  Level FlightAware Approximate
08:17AM 62.5442 14.5079 289° West  Level FlightAware Approximate
08:18AM 62.5835 14.2492 288° West  Level FlightAware Approximate
08:19AM 62.6224 13.9897 288° West  Level FlightAware Approximate
08:20AM 62.6607 13.7296 288° West  Level FlightAware Approximate
08:21AM 62.6986 13.4688 288° West  Level FlightAware Approximate
08:22AM 62.7360 13.2073 287° West  Level FlightAware Approximate
08:23AM 62.7729 12.9452 287° West  Level FlightAware Approximate
08:24AM 62.8093 12.6824 287° West  Level FlightAware Approximate
08:25AM 62.8453 12.4190 287° West  Level FlightAware Approximate
08:26AM 62.8807 12.1550 287° West  Level FlightAware Approximate
08:27AM 62.9157 11.8903 286° West  Level FlightAware Approximate
08:28AM 62.9501 11.6249 286° West  Level FlightAware Approximate
08:29AM 62.9841 11.3590 286° West  Level FlightAware Approximate
08:30AM 63.0175 11.0924 286° West  Level FlightAware Approximate
08:31AM 63.0505 10.8253 285° West  Level FlightAware Approximate
08:32AM 63.0829 10.5575 285° West  Level FlightAware Approximate
08:33AM 63.1148 10.2892 285° West  Level FlightAware Approximate
08:34AM 63.1463 10.0202 285° West  Level FlightAware Approximate
08:35AM 63.1772 9.7507 284° West  Level FlightAware Approximate
08:36AM 63.2076 9.4806 284° West  Level FlightAware Approximate
08:37AM 63.2375 9.2099 284° West  Level FlightAware Approximate
08:38AM 63.2668 8.9387 284° West  Level FlightAware Approximate
08:39AM 63.2957 8.6670 283° West  Level FlightAware Approximate
08:40AM 63.3241 8.3946 283° West  Level FlightAware Approximate
08:41AM 63.3519 8.1218 283° West  Level FlightAware Approximate
08:42AM 63.3792 7.8485 283° West  Level FlightAware Approximate
08:43AM 63.4059 7.5746 282° West  Level FlightAware Approximate
08:44AM 63.4322 7.3002 282° West  Level FlightAware Approximate
08:45AM 63.4579 7.0253 282° West  Level FlightAware Approximate
08:46AM 63.4831 6.7499 282° West  Level FlightAware Approximate
08:47AM 63.5078 6.4741 281° West  Level FlightAware Approximate
08:48AM 63.5319 6.1978 281° West  Level FlightAware Approximate
08:49AM 63.5555 5.9210 281° West  Level FlightAware Approximate
08:50AM 63.5786 5.6438 281° West  Level FlightAware Approximate
08:51AM 63.6011 5.3661 280° West  Level FlightAware Approximate
08:52AM 63.6231 5.0880 280° West  Level FlightAware Approximate
08:53AM 63.6446 4.8094 280° West  Level FlightAware Approximate
08:54AM 63.6655 4.5305 280° West  Level FlightAware Approximate
08:55AM 63.6859 4.2511 279° West  Level FlightAware Approximate
08:56AM 63.7057 3.9713 279° West  Level FlightAware Approximate
08:57AM 63.7250 3.6912 279° West  Level FlightAware Approximate
08:58AM 63.7438 3.4107 279° West  Level FlightAware Approximate
08:59AM 63.7620 3.1298 278° West  Level FlightAware Approximate
09:00AM 63.7796 2.8485 278° West  Level FlightAware Approximate
09:01AM 63.7967 2.5669 278° West  Level FlightAware Approximate
09:02AM 63.8133 2.2850 278° West  Level FlightAware Approximate
09:03AM 63.8293 2.0027 277° West  Level FlightAware Approximate
09:04AM 63.8447 1.7202 277° West  Level FlightAware Approximate
09:05AM 63.8596 1.4373 277° West  Level FlightAware Approximate
09:06AM 63.8740 1.1541 277° West  Level FlightAware Approximate
09:07AM 63.8878 0.8707 276° West  Level FlightAware Approximate
09:08AM 63.9010 0.5869 276° West  Level FlightAware Approximate
09:09AM 63.9137 0.3029 276° West  Level FlightAware Approximate
09:10AM 63.9259 0.0187 276° West  Level FlightAware Approximate
09:11AM 63.9374 -0.2658 275° West  Level FlightAware Approximate
09:12AM 63.9484 -0.5505 275° West  Level FlightAware Approximate
09:13AM 63.9589 -0.8354 275° West  Level FlightAware Approximate
09:14AM 63.9688 -1.1206 275° West  Level FlightAware Approximate
09:15AM 63.9781 -1.4059 274° West  Level FlightAware Approximate
09:16AM 63.9869 -1.6914 274° West  Level FlightAware Approximate
09:17AM 63.9952 -1.9771 274° West  Level FlightAware Approximate
09:18AM 64.0028 -2.2630 274° West  Level FlightAware Approximate
09:19AM 64.0099 -2.5490 273° West  Level FlightAware Approximate
09:20AM 64.0164 -2.8351 273° West  Level FlightAware Approximate
09:21AM 64.0224 -3.1214 273° West  Level FlightAware Approximate
09:22AM 64.0278 -3.4078 273° West  Level FlightAware Approximate
09:23AM 64.0326 -3.6943 272° West  Level FlightAware Approximate
09:24AM 64.0369 -3.9809 272° West  Level FlightAware Approximate
09:25AM 64.0406 -4.2675 272° West  Level FlightAware Approximate
09:26AM 64.0438 -4.5543 272° West  Level FlightAware Approximate
09:27AM 64.0464 -4.8411 271° West  Level FlightAware Approximate
09:28AM 64.0484 -5.1279 271° West  Level FlightAware Approximate
09:29AM 64.0498 -5.4148 271° West  Level FlightAware Approximate
09:30AM 64.0507 -5.7017 271° West  Level FlightAware Approximate
09:31AM 64.0510 -5.9886 270° West  Level FlightAware Approximate
09:32AM 64.0508 -6.2756 270° West  Level FlightAware Approximate
09:33AM 64.0500 -6.5625 270° West  Level FlightAware Approximate
09:34AM 64.0486 -6.8494 270° West  Level FlightAware Approximate
09:35AM 64.0467 -7.1362 269° West  Level FlightAware Approximate
09:36AM 64.0442 -7.4230 269° West  Level FlightAware Approximate
09:37AM 64.0411 -7.7098 269° West  Level FlightAware Approximate
09:38AM 64.0375 -7.9965 268° West  Level FlightAware Approximate
09:39AM 64.0333 -8.2831 268° West  Level FlightAware Approximate
09:40AM 64.0285 -8.5696 268° West  Level FlightAware Approximate
09:41AM 64.0232 -8.8560 268° West  Level FlightAware Approximate
09:42AM 64.0173 -9.1423 267° West  Level FlightAware Approximate
09:43AM 64.0108 -9.4284 267° West  Level FlightAware Approximate
09:44AM 64.0038 -9.7145 267° West  Level FlightAware Approximate
09:45AM 63.9962 -10.0003 267° West  Level FlightAware Approximate
09:46AM 63.9881 -10.2861 266° West  Level FlightAware Approximate
09:47AM 63.9794 -10.5716 266° West  Level FlightAware Approximate
09:48AM 63.9701 -10.8570 266° West  Level FlightAware Approximate
09:49AM 63.9603 -11.1421 266° West  Level FlightAware Approximate
09:50AM 63.9499 -11.4271 265° West  Level FlightAware Approximate
09:51AM 63.9390 -11.7119 265° West  Level FlightAware Approximate
09:52AM 63.9275 -11.9964 265° West  Level FlightAware Approximate
09:53AM 63.9155 -12.2806 265° West  Level FlightAware Approximate
09:54AM 63.9028 -12.5647 264° West  Level FlightAware Approximate
09:55AM 63.8897 -12.8484 264° West  Level FlightAware Approximate
09:56AM 63.8759 -13.1319 264° West  Level FlightAware Approximate
09:57AM 63.8617 -13.4151 264° West  Level FlightAware Approximate
09:58AM 63.8468 -13.6981 263° West  Level FlightAware Approximate
09:59AM 63.8315 -13.9807 263° West  Level FlightAware Approximate
10:00AM 63.8155 -14.2630 263° West  Level FlightAware Approximate
10:01AM 63.7990 -14.5450 263° West  Level FlightAware Approximate
10:02AM 63.7820 -14.8266 262° West  Level FlightAware Approximate
10:03AM 63.7644 -15.1079 262° West  Level FlightAware Approximate
10:04AM 63.7463 -15.3888 262° West  Level FlightAware Approximate
10:05AM 63.7276 -15.6694 262° West  Level FlightAware Approximate
10:06AM 63.7084 -15.9496 261° West  Level FlightAware Approximate
10:07AM 63.6887 -16.2294 261° West  Level FlightAware Approximate
10:08AM 63.6684 -16.5089 261° West  Level FlightAware Approximate
10:09AM 63.6475 -16.7879 261° West  Level FlightAware Approximate
10:10AM 63.6261 -17.0665 260° West  Level FlightAware Approximate
10:11AM 63.6042 -17.3447 260° West  Level FlightAware Approximate
10:12AM 63.5817 -17.6224 260° West  Level FlightAware Approximate
10:13AM 63.5588 -17.8997 260° West  Level FlightAware Approximate
10:14AM 63.5352 -18.1765 259° West  Level FlightAware Approximate
10:15AM 63.5112 -18.4529 259° West  Level FlightAware Approximate
10:16AM 63.4866 -18.7288 259° West  Level FlightAware Approximate
10:17AM 63.4614 -19.0043 259° West  Level FlightAware Approximate
10:18AM 63.4358 -19.2792 258° West  Level FlightAware Approximate
10:19AM 63.4096 -19.5537 258° West  Level FlightAware Approximate
10:20AM 63.3829 -19.8276 258° West  Level FlightAware Approximate
10:21AM 63.3557 -20.1010 258° West  Level FlightAware Approximate
10:22AM 63.3279 -20.3739 257° West  Level FlightAware Approximate
10:23AM 63.2997 -20.6463 257° West  Level FlightAware Approximate
10:24AM 63.2709 -20.9182 257° West  Level FlightAware Approximate
10:25AM 63.2416 -21.1894 257° West  Level FlightAware Approximate
10:26AM 63.2118 -21.4602 256° West  Level FlightAware Approximate
10:27AM 63.1814 -21.7304 256° West  Level FlightAware Approximate
10:28AM 63.1506 -22.0000 256° West  Level FlightAware Approximate
10:29AM 63.1192 -22.2690 256° West  Level FlightAware Approximate
10:30AM 63.0874 -22.5374 255° West  Level FlightAware Approximate
10:31AM 63.0550 -22.8053 255° West  Level FlightAware Approximate
10:32AM 63.0221 -23.0725 255° West  Level FlightAware Approximate
10:33AM 62.9887 -23.3392 255° West  Level FlightAware Approximate
10:34AM 62.9549 -23.6052 254° West  Level FlightAware Approximate
10:35AM 62.9205 -23.8706 254° West  Level FlightAware Approximate
10:36AM 62.8856 -24.1354 254° West  Level FlightAware Approximate
10:37AM 62.8502 -24.3995 254° West  Level FlightAware Approximate
10:38AM 62.8144 -24.6631 254° West  Level FlightAware Approximate
10:39AM 62.7780 -24.9259 253° West  Level FlightAware Approximate
10:40AM 62.7412 -25.1881 253° West  Level FlightAware Approximate
10:41AM 62.7038 -25.4497 253° West  Level FlightAware Approximate
10:42AM 62.6660 -25.7106 253° West  Level FlightAware Approximate
10:43AM 62.6277 -25.9708 252° West  Level FlightAware Approximate
10:44AM 62.5889 -26.2304 252° West  Level FlightAware Approximate
10:45AM 62.5497 -26.4892 252° West  Level FlightAware Approximate
10:46AM 62.5099 -26.7474 252° West  Level FlightAware Approximate
10:47AM 62.4697 -27.0049 251° West  Level FlightAware Approximate
10:48AM 62.4291 -27.2617 251° West  Level FlightAware Approximate
10:49AM 62.3879 -27.5178 251° West  Level FlightAware Approximate
10:50AM 62.3463 -27.7731 251° West  Level FlightAware Approximate
10:51AM 62.3042 -28.0278 251° West  Level FlightAware Approximate
10:52AM 62.2616 -28.2818 250° West  Level FlightAware Approximate
10:53AM 62.2186 -28.5350 250° West  Level FlightAware Approximate
10:54AM 62.1751 -28.7875 250° West  Level FlightAware Approximate
10:55AM 62.1312 -29.0393 250° West  Level FlightAware Approximate
10:56AM 62.0868 -29.2903 249° West  Level FlightAware Approximate
10:57AM 62.0419 -29.5407 249° West  Level FlightAware Approximate
10:58AM 61.9966 -29.7902 249° West  Level FlightAware Approximate
10:59AM 61.9509 -30.0391 249° West  Level FlightAware Approximate
11:00AM 61.9047 -30.2871 249° West  Level FlightAware Approximate
11:01AM 61.8581 -30.5345 248° West  Level FlightAware Approximate
11:02AM 61.8110 -30.7810 248° West  Level FlightAware Approximate
11:03AM 61.7635 -31.0268 248° West  Level FlightAware Approximate
11:04AM 61.7155 -31.2719 248° West  Level FlightAware Approximate
11:05AM 61.6671 -31.5162 247° West  Level FlightAware Approximate
11:06AM 61.6183 -31.7597 247° West  Level FlightAware Approximate
11:07AM 61.5690 -32.0035 247° West  Level FlightAware Approximate
11:08AM 61.5195 -32.2457 247° West  Level FlightAware Approximate
11:09AM 61.4697 -32.4871 247° West  Level FlightAware Approximate
11:10AM 61.4194 -32.7278 246° West  Level FlightAware Approximate
11:11AM 61.3686 -32.9676 246° West  Level FlightAware Approximate
11:12AM 61.3175 -33.2067 246° West  Level FlightAware Approximate
11:13AM 61.2659 -33.4450 246° West  Level FlightAware Approximate
11:14AM 61.2140 -33.6826 246° West  Level FlightAware Approximate
11:15AM 61.1616 -33.9193 245° Southwest  Level FlightAware Approximate
11:16AM 61.1088 -34.1553 245° Southwest  Level FlightAware Approximate
11:17AM 61.0555 -34.3904 245° Southwest  Level FlightAware Approximate
11:18AM 61.0019 -34.6248 245° Southwest  Level FlightAware Approximate
11:19AM 60.9479 -34.8584 245° Southwest  Level FlightAware Approximate
11:20AM 60.8935 -35.0912 244° Southwest  Level FlightAware Approximate
11:21AM 60.8386 -35.3232 244° Southwest  Level FlightAware Approximate
11:22AM 60.7834 -35.5544 244° Southwest  Level FlightAware Approximate
11:23AM 60.7278 -35.7847 244° Southwest  Level FlightAware Approximate
11:24AM 60.6718 -36.0143 244° Southwest  Level FlightAware Approximate
11:25AM 60.6154 -36.2431 243° Southwest  Level FlightAware Approximate
11:26AM 60.5586 -36.4711 243° Southwest  Level FlightAware Approximate
11:27AM 60.5014 -36.6983 243° Southwest  Level FlightAware Approximate
11:28AM 60.4438 -36.9247 243° Southwest  Level FlightAware Approximate
11:29AM 60.3859 -37.1503 243° Southwest  Level FlightAware Approximate
11:30AM 60.3275 -37.3751 242° Southwest  Level FlightAware Approximate
11:31AM 60.2688 -37.5990 242° Southwest  Level FlightAware Approximate
11:32AM 60.2097 -37.8222 242° Southwest  Level FlightAware Approximate
11:33AM 60.1503 -38.0446 242° Southwest  Level FlightAware Approximate
11:34AM 60.0905 -38.2661 242° Southwest  Level FlightAware Approximate
11:35AM 60.0303 -38.4869 241° Southwest  Level FlightAware Approximate
11:36AM 59.9697 -38.7068 241° Southwest  Level FlightAware Approximate
11:37AM 59.9088 -38.9260 241° Southwest  Level FlightAware Approximate
11:38AM 59.8475 -39.1443 241° Southwest  Level FlightAware Approximate
11:39AM 59.7858 -39.3619 241° Southwest  Level FlightAware Approximate
11:40AM 59.7238 -39.5786 240° Southwest  Level FlightAware Approximate
11:41AM 59.6614 -39.7945 240° Southwest  Level FlightAware Approximate
11:42AM 59.5987 -40.0096 240° Southwest  Level FlightAware Approximate
11:43AM 59.5356 -40.2239 240° Southwest  Level FlightAware Approximate
11:44AM 59.4722 -40.4375 240° Southwest  Level FlightAware Approximate
11:45AM 59.4085 -40.6502 240° Southwest  Level FlightAware Approximate
11:46AM 59.3443 -40.8621 239° Southwest  Level FlightAware Approximate
11:47AM 59.2799 -41.0732 239° Southwest  Level FlightAware Approximate
11:48AM 59.2151 -41.2835 239° Southwest  Level FlightAware Approximate
11:49AM 59.1500 -41.4930 239° Southwest  Level FlightAware Approximate
11:50AM 59.0845 -41.7017 239° Southwest  Level FlightAware Approximate
11:51AM 59.0187 -41.9096 238° Southwest  Level FlightAware Approximate
11:52AM 58.9526 -42.1167 238° Southwest  Level FlightAware Approximate
11:53AM 58.8861 -42.3231 238° Southwest  Level FlightAware Approximate
11:54AM 58.8193 -42.5286 238° Southwest  Level FlightAware Approximate
11:55AM 58.7522 -42.7333 238° Southwest  Level FlightAware Approximate
11:56AM 58.6848 -42.9373 238° Southwest  Level FlightAware Approximate
11:57AM 58.6170 -43.1405 237° Southwest  Level FlightAware Approximate
11:58AM 58.5489 -43.3428 237° Southwest  Level FlightAware Approximate
11:59AM 58.4805 -43.5444 237° Southwest  Level FlightAware Approximate
12:00PM 58.4118 -43.7452 237° Southwest  Level FlightAware Approximate
12:01PM 58.3428 -43.9452 237° Southwest  Level FlightAware Approximate
12:02PM 58.2734 -44.1445 237° Southwest  Level FlightAware Approximate
12:03PM 58.2038 -44.3429 236° Southwest  Level FlightAware Approximate
12:04PM 58.1339 -44.5406 236° Southwest  Level FlightAware Approximate
12:05PM 58.0636 -44.7375 236° Southwest  Level FlightAware Approximate
12:06PM 57.9930 -44.9336 236° Southwest  Level FlightAware Approximate
12:07PM 57.9222 -45.1290 236° Southwest  Level FlightAware Approximate
12:08PM 57.8510 -45.3235 236° Southwest  Level FlightAware Approximate
12:09PM 57.7796 -45.5173 235° Southwest  Level FlightAware Approximate
12:10PM 57.7078 -45.7104 235° Southwest  Level FlightAware Approximate
12:11PM 57.6358 -45.9027 235° Southwest  Level FlightAware Approximate
12:12PM 57.5635 -46.0942 235° Southwest  Level FlightAware Approximate
12:13PM 57.4908 -46.2850 235° Southwest  Level FlightAware Approximate
12:14PM 57.4179 -46.4749 235° Southwest  Level FlightAware Approximate
12:15PM 57.3447 -46.6642 234° Southwest  Level FlightAware Approximate
12:16PM 57.2713 -46.8527 234° Southwest  Level FlightAware Approximate
12:17PM 57.1975 -47.0404 234° Southwest  Level FlightAware Approximate
12:18PM 57.1235 -47.2274 234° Southwest  Level FlightAware Approximate
12:19PM 57.0492 -47.4136 234° Southwest  Level FlightAware Approximate
12:20PM 56.9746 -47.5991 234° Southwest  Level FlightAware Approximate
12:21PM 56.8997 -47.7839 233° Southwest  Level FlightAware Approximate
12:22PM 56.8246 -47.9679 233° Southwest  Level FlightAware Approximate
12:23PM 56.7492 -48.1511 233° Southwest  Level FlightAware Approximate
12:24PM 56.6735 -48.3337 233° Southwest  Level FlightAware Approximate
12:25PM 56.5976 -48.5155 233° Southwest  Level FlightAware Approximate
12:26PM 56.5214 -48.6965 233° Southwest  Level FlightAware Approximate
12:27PM 56.4450 -48.8769 233° Southwest  Level FlightAware Approximate
12:28PM 56.3682 -49.0565 232° Southwest  Level FlightAware Approximate
12:29PM 56.2912 -49.2354 232° Southwest  Level FlightAware Approximate
12:30PM 56.2140 -49.4136 232° Southwest  Level FlightAware Approximate
12:31PM 56.1365 -49.5910 232° Southwest  Level FlightAware Approximate
12:32PM 56.0588 -49.7678 232° Southwest  Level FlightAware Approximate
12:33PM 55.9808 -49.9438 232° Southwest  Level FlightAware Approximate
12:34PM 55.9025 -50.1191 232° Southwest  Level FlightAware Approximate
12:35PM 55.8241 -50.2937 231° Southwest  Level FlightAware Approximate
12:36PM 55.7453 -50.4676 231° Southwest  Level FlightAware Approximate
12:37PM 55.6663 -50.6408 231° Southwest  Level FlightAware Approximate
12:38PM 55.5871 -50.8134 231° Southwest  Level FlightAware Approximate
12:39PM 55.5076 -50.9852 231° Southwest  Level FlightAware Approximate
12:40PM 55.4279 -51.1563 231° Southwest  Level FlightAware Approximate
12:41PM 55.3480 -51.3267 231° Southwest  Level FlightAware Approximate
12:42PM 55.2678 -51.4964 230° Southwest  Level FlightAware Approximate
12:43PM 55.1874 -51.6655 230° Southwest  Level FlightAware Approximate
12:44PM 55.1067 -51.8339 230° Southwest  Level FlightAware Approximate
12:45PM 55.0258 -52.0016 230° Southwest  Level FlightAware Approximate
12:46PM 54.9447 -52.1686 230° Southwest  Level FlightAware Approximate
12:47PM 54.8634 -52.3349 230° Southwest  Level FlightAware Approximate
12:48PM 54.7818 -52.5006 230° Southwest  Level FlightAware Approximate
12:49PM 54.7001 -52.6656 229° Southwest  Level FlightAware Approximate
12:50PM 54.6180 -52.8299 229° Southwest  Level FlightAware Approximate
12:51PM 54.5358 -52.9936 229° Southwest  Level FlightAware Approximate
12:52PM 54.4534 -53.1566 229° Southwest  Level FlightAware Approximate
12:53PM 54.3707 -53.3190 229° Southwest  Level FlightAware Approximate
12:54PM 54.2878 -53.4807 229° Southwest  Level FlightAware Approximate
12:55PM 54.2047 -53.6418 229° Southwest  Level FlightAware Approximate
12:56PM 54.1214 -53.8022 228° Southwest  Level FlightAware Approximate
12:57PM 54.0378 -53.9619 228° Southwest  Level FlightAware Approximate
12:58PM 53.9541 -54.1211 228° Southwest  Level FlightAware Approximate
12:59PM 53.8701 -54.2796 228° Southwest  Level FlightAware Approximate
01:00PM 53.7860 -54.4374 228° Southwest  Level FlightAware Approximate
01:01PM 53.7014 -54.5943 227° Southwest  Level FlightAware Approximate
01:02PM 53.6158 -54.7493 228° Southwest  Level FlightAware Approximate
01:03PM 53.5315 -54.9060 228° Southwest  Level FlightAware Approximate
01:04PM 53.4470 -55.0620 228° Southwest  Level FlightAware Approximate
01:05PM 53.3623 -55.2174 228° Southwest  Level FlightAware Approximate
01:06PM 53.2774 -55.3722 227° Southwest  Level FlightAware Approximate
01:07PM 53.1922 -55.5264 227° Southwest  Level FlightAware Approximate
01:08PM 53.1069 -55.6800 227° Southwest  Level FlightAware Approximate
01:09PM 53.0214 -55.8330 227° Southwest  Level FlightAware Approximate
01:10PM 52.9357 -55.9853 227° Southwest  Level FlightAware Approximate
01:11PM 52.8498 -56.1371 227° Southwest  Level FlightAware Approximate
01:12PM 52.7637 -56.2882 227° Southwest  Level FlightAware Approximate
01:13PM 52.6774 -56.4388 227° Southwest  Level FlightAware Approximate
01:14PM 52.5909 -56.5887 227° Southwest  Level FlightAware Approximate
01:15PM 52.5042 -56.7381 226° Southwest  Level FlightAware Approximate
01:16PM 52.4174 -56.8869 226° Southwest  Level FlightAware Approximate
01:17PM 52.3303 -57.0351 226° Southwest  Level FlightAware Approximate
01:18PM 52.2431 -57.1827 226° Southwest  Level FlightAware Approximate
01:19PM 52.1556 -57.3296 226° Southwest  Level FlightAware Approximate
01:20PM 52.0676 -57.4755 226° Southwest  Level FlightAware Approximate
01:21PM 51.9795 -57.6208 225° Southwest  Level FlightAware Approximate
01:22PM 51.8912 -57.7656 225° Southwest  Level FlightAware Approximate
01:23PM 51.8028 -57.9098 225° Southwest  Level FlightAware Approximate
01:24PM 51.7141 -58.0535 225° Southwest  Level FlightAware Approximate
01:25PM 51.6253 -58.1965 225° Southwest  Level FlightAware Approximate
01:25PM 53.1500 -53.9167 222° Southwest 450 518 36,000  Level Gander Center
01:26PM 51.5363 -58.3391 225° Southwest  Level FlightAware Approximate
01:26PM 53.0667 -54.0667 227° Southwest 440 506 36,000  Level Gander Center
01:27PM 51.4472 -58.4810 225° Southwest  Level FlightAware Approximate
01:27PM 53.0000 -54.2167 234° Southwest 430 495 36,000  Level Gander Center
01:28PM 51.3578 -58.6224 225° Southwest  Level FlightAware Approximate
01:28PM 52.9333 -54.3667 234° Southwest 420 483 36,000  Level Gander Center
01:29PM 51.2683 -58.7633 225° Southwest  Level FlightAware Approximate
01:29PM 52.8667 -54.4833 227° Southwest 420 483 36,000  Level Gander Center
01:30PM 51.1780 -58.8918 222° Southwest  Level Estimated
01:30PM 52.8000 -54.6333 234° Southwest 420 483 36,000  Level Gander Center
01:31PM 52.6833 -54.8500 228° Southwest 420 483 36,000  Level Gander Center
01:32PM 52.6167 -55.0000 234° Southwest 430 495 36,000  Level Gander Center
01:33PM 52.5333 -55.1500 228° Southwest 430 495 36,000  Level Gander Center
01:34PM 52.4667 -55.3000 234° Southwest 430 495 36,000  Level Gander Center
01:35PM 52.3833 -55.4500 228° Southwest 430 495 36,000  Level Gander Center
01:36PM 52.3000 -55.5667 221° Southwest 430 495 36,000  Level Gander Center
01:37PM 52.2333 -55.7167 234° Southwest 440 506 36,000  Level Gander Center
01:38PM 52.1500 -55.8500 224° Southwest 430 495 36,000  Level Gander Center
01:39PM 52.0333 -56.0667 229° Southwest 440 506 36,000  Level Moncton Center
01:40PM 51.9667 -56.1833 227° Southwest 430 495 36,000  Level Gander Center
01:41PM 51.8833 -56.3167 225° Southwest 430 495 36,000  Level Gander Center
01:42PM 51.7833 -56.4833 226° Southwest 430 495 36,000  Level Moncton Center
01:43PM 51.7000 -56.6333 228° Southwest 430 495 36,000  Level Moncton Center
01:44PM 51.6500 -56.7333 231° Southwest 430 495 36,000  Level Gander Center
01:45PM 51.5667 -56.8667 225° Southwest 450 518 36,000  Level Gander Center
01:46PM 51.5000 -57.0167 235° Southwest 430 495 36,000  Level Gander Center
01:47PM 51.4167 -57.1500 225° Southwest 440 506 36,000  Level Gander Center
01:48PM 51.3000 -57.3167 222° Southwest 440 506 36,000  Level Gander Center
01:49PM 51.2333 -57.4667 235° Southwest 440 506 36,000  Level Gander Center
01:50PM 51.1500 -57.6000 225° Southwest 430 495 36,000  Level Gander Center
01:51PM 51.0667 -57.7500 229° Southwest 430 495 36,000  Level Gander Center
01:52PM 50.9667 -57.8833 220° Southwest 440 506 36,000  Level Gander Center
01:53PM 50.9167 -58.0000 236° Southwest 440 506 36,000  Level Gander Center
01:54PM 50.8167 -58.1833 229° Southwest 440 506 36,000  Level Gander Center
01:56PM 50.6500 -58.4333 224° Southwest 440 506 36,000  Level Gander Center
01:57PM 50.5500 -58.6000 227° Southwest 440 506 36,000  Level Gander Center
01:58PM 50.5000 -58.7000 232° Southwest 440 506 36,000  Level Gander Center
02:00PM 50.3000 -59.0000 224° Southwest 440 506 36,000  Level Gander Center
02:01PM 50.2333 -59.1333 232° Southwest 440 506 36,000  Level Gander Center
02:02PM 50.1500 -59.3000 232° Southwest 440 506 36,000  Level Gander Center
02:03PM 50.0667 -59.4333 226° Southwest 440 506 36,000  Level Gander Center
02:04PM 49.9833 -59.6000 232° Southwest 440 506 36,000  Level Gander Center
02:05PM 49.9000 -59.7167 222° Southwest 430 495 36,000  Level Gander Center
02:06PM 49.8333 -59.8833 238° Southwest 440 506 36,000  Level Gander Center
02:07PM 49.7500 -60.0167 226° Southwest 440 506 36,000 300 Level Gander Center
02:08PM 49.6667 -60.1667 229° Southwest 450 518 36,600 900 Climbing Gander Center
02:09PM 49.5833 -60.3000 226° Southwest 440 506 37,800 660 Climbing Gander Center
02:10PM 49.5167 -60.4333 232° Southwest 440 506 38,000 60 Climbing Gander Center
02:11PM 49.4333 -60.5833 230° Southwest 440 506 38,000  Level Gander Center
02:12PM 49.3500 -60.7167 226° Southwest 430 495 38,000  Level Gander Center
02:13PM 49.2667 -60.8667 230° Southwest 430 495 38,000  Level Gander Center
02:14PM 49.1833 -61.0000 226° Southwest 430 495 38,000  Level Gander Center
02:15PM 49.1000 -61.1333 226° Southwest 430 495 38,000  Level Gander Center
02:16PM 49.0333 -61.2500 229° Southwest 430 495 38,000  Level Gander Center
02:17PM 48.9500 -61.4167 233° Southwest 430 495 38,000  Level Gander Center
02:18PM 48.8667 -61.5333 223° Southwest 430 495 38,000  Level Gander Center
02:19PM 48.8000 -61.6667 233° Southwest 420 483 38,000  Level Gander Center
02:20PM 48.7167 -61.8167 230° Southwest 430 495 38,000  Level Gander Center
02:21PM 48.6333 -61.9333 223° Southwest 420 483 38,000  Level Gander Center
02:22PM 48.5500 -62.0667 227° Southwest 420 483 38,000  Level Gander Center
02:23PM 48.4833 -62.1833 229° Southwest 430 495 38,000  Level Gander Center
02:24PM 48.4000 -62.3333 230° Southwest 430 495 38,000  Level Gander Center
02:25PM 48.3000 -62.4667 222° Southwest 430 495 38,000  Level Gander Center
02:26PM 48.2167 -62.6167 230° Southwest 440 506 38,000  Level Gander Center
02:27PM 48.1167 -62.7667 225° Southwest 440 506 38,000  Level Moncton Center
02:28PM 48.0333 -62.9000 227° Southwest 440 506 38,000  Level Moncton Center
02:29PM 47.9667 -63.0167 230° Southwest 440 506 38,000  Level Moncton Center
02:30PM 47.9000 -63.1333 230° Southwest 440 506 38,000  Level Gander Center
02:31PM 47.8167 -63.2667 227° Southwest 440 506 38,000  Level Gander Center
02:32PM 47.7333 -63.4000 227° Southwest 440 506 38,000  Level Gander Center
02:33PM 47.6333 -63.5333 222° Southwest 440 506 38,000  Level Gander Center
02:34PM 47.5500 -63.6500 223° Southwest 430 495 38,000  Level Gander Center
02:35PM 47.4667 -63.7833 227° Southwest 440 506 38,000  Level Gander Center
02:36PM 47.4000 -63.9167 234° Southwest 430 495 38,000  Level Gander Center
02:37PM 47.3167 -64.0333 224° Southwest 440 506 38,000  Level Gander Center
02:38PM 47.2333 -64.1667 227° Southwest 440 506 38,000  Level Gander Center
02:39PM 47.1333 -64.3000 222° Southwest 440 506 38,000  Level Gander Center
02:40PM 47.0500 -64.4167 224° Southwest 440 506 38,000  Level Gander Center
02:41PM 46.9667 -64.5667 231° Southwest 430 495 38,000  Level Gander Center
02:42PM 46.8833 -64.6833 224° Southwest 430 495 38,000  Level Gander Center
02:43PM 46.8000 -64.8167 228° Southwest 440 506 38,000  Level Gander Center
02:44PM 46.7000 -64.9833 229° Southwest 440 506 38,000  Level Moncton Center
02:45PM 46.6000 -65.1000 219° Southwest 440 506 38,000  Level Moncton Center
02:46PM 46.5167 -65.2167 224° Southwest 440 506 38,000  Level Moncton Center
02:52PM 46.0556 -65.9132 225° Southwest 455 524 38,000  Level FlightAware ADS-B (CYQI)
02:52PM 45.9712 -66.0327 225° Southwest 455 524 38,000  Level FlightAware ADS-B (CYQI)
02:54PM 45.8695 -66.1761 224° Southwest 453 521 38,000  Level FlightAware ADS-B (CYQI)
02:55PM 45.7682 -66.3181 224° Southwest 452 520 38,000  Level FlightAware ADS-B (CYQI)
02:55PM 45.6941 -66.4214 224° Southwest 451 519 38,000  Level FlightAware ADS-B (CYQI)
02:56PM 45.6230 -66.5202 224° Southwest 449 517 38,000  Level FlightAware ADS-B (CYQI)
02:57PM 45.5577 -66.6106 224° Southwest 448 516 38,000  Level FlightAware ADS-B (CYQI)
02:57PM 45.5123 -66.6733 224° Southwest 445 512 38,000  Level FlightAware ADS-B (CYQI)
02:59PM 45.4091 -66.8154 224° Southwest 445 512 38,000  Level FlightAware ADS-B (CYQI)
03:02PM 45.0811 -67.2615 224° Southwest 439 505 38,000  Level FlightAware ADS-B (CYSG)
03:03PM 45.0278 -67.3333 224° Southwest 437 503 38,000  Level FlightAware ADS-B (CYQI)
03:03PM 44.9819 -67.3950 224° Southwest 438 504 38,000  Level FlightAware ADS-B (CYQI)
03:04PM 44.9620 -67.4217 224° Southwest 438 504 38,000  Level FlightAware ADS-B (KBGR)
03:04PM 44.8976 -67.5080 224° Southwest 437 503 38,000  Level FlightAware ADS-B (CYQI)
03:05PM 44.8556 -67.5640 223° Southwest 438 504 38,000  Level FlightAware ADS-B (CYSG)
03:05PM 44.8045 -67.6320 223° Southwest 438 504 38,000  Level FlightAware ADS-B (CYQI)
03:06PM 44.7494 -67.7051 223° Southwest 437 503 38,000  Level FlightAware ADS-B (CYQI)
03:07PM 44.7010 -67.7692 223° Southwest 435 501 38,000  Level FlightAware ADS-B (CYQI)
03:07PM 44.6458 -67.8423 223° Southwest 432 497 38,000  Level FlightAware ADS-B (CYQI)
03:08PM 44.5991 -67.9037 223° Southwest 429 494 38,000  Level FlightAware ADS-B (CYQI)
03:08PM 44.5414 -67.9796 223° Southwest 426 490 38,000  Level FlightAware ADS-B (CYQI)
03:09PM 44.4963 -68.0389 223° Southwest 425 489 38,000  Level FlightAware ADS-B (KBGR)
03:10PM 44.4431 -68.1084 223° Southwest 425 489 38,000  Level FlightAware ADS-B (CYQI)
03:10PM 44.4039 -68.1596 223° Southwest 426 490 38,000  Level FlightAware ADS-B (CYQI)
03:11PM 44.3507 -68.2289 223° Southwest 427 491 38,000  Level FlightAware ADS-B (CYQI)
03:11PM 44.3013 -68.2930 223° Southwest 426 490 38,000  Level FlightAware ADS-B (CYQI)
03:12PM 44.2417 -68.3701 223° Southwest 426 490 38,000  Level FlightAware ADS-B (CYQI)
03:12PM 44.1987 -68.4257 223° Southwest 426 490 38,000  Level FlightAware ADS-B (CYQI)
03:13PM 44.1507 -68.4876 223° Southwest 427 491 38,000  Level FlightAware ADS-B (KBGR)
03:14PM 44.1069 -68.5440 223° Southwest 427 491 38,000  Level FlightAware ADS-B (KBGR)
03:14PM 44.0517 -68.6149 223° Southwest 427 491 38,000  Level FlightAware ADS-B (KBOS)
03:15PM 43.9429 -68.7540 223° Southwest 424 488 38,000  Level FlightAware ADS-B (KBOS)
03:17PM 43.8329 -68.8938 223° Southwest 425 489 38,000  Level FlightAware ADS-B (KBOS)
03:17PM 43.7890 -68.9494 222° Southwest 425 489 38,000  Level FlightAware ADS-B (KBOS)
03:18PM 43.7340 -69.0190 223° Southwest 426 490 38,000  Level FlightAware ADS-B (KBOS)
03:18PM 43.6845 -69.0814 223° Southwest 430 495 38,000  Level FlightAware ADS-B (KBOS)
03:19PM 43.6626 -69.1089 223° Southwest 423 487 38,000  Level FlightAware ADS-B (KASH)
03:19PM 43.6061 -69.1799 222° Southwest 428 493 38,000  Level FlightAware ADS-B (KBOS)
03:20PM 43.5598 -69.2381 222° Southwest 425 489 38,000  Level FlightAware ADS-B (KBOS)
03:20PM 43.5530 -69.2466 223° Southwest 418 481 38,000  Level FlightAware ADS-B (KASH)
03:20PM 43.5168 -69.2917 222° Southwest 423 487 38,000  Level FlightAware ADS-B (CYQI)
03:21PM 43.4669 -69.3541 222° Southwest 423 487 38,000  Level FlightAware ADS-B (KBOS)
03:21PM 43.4527 -69.3718 223° Southwest 417 480 38,000  Level FlightAware ADS-B (KASH)
03:21PM 43.4296 -69.4006 223° Southwest 417 480 38,000  Level FlightAware ADS-B (KASH)
03:22PM 43.4077 -69.4278 223° Southwest 417 480 38,000  Level FlightAware ADS-B (KASH)
03:22PM 43.3703 -69.4741 223° Southwest 417 480 38,000  Level FlightAware ADS-B (KASH)
03:23PM 43.3212 -69.5353 222° Southwest 421 484 38,000  Level FlightAware ADS-B (KBOS)
03:23PM 43.2683 -69.6006 222° Southwest 421 484 38,000  Level FlightAware ADS-B (CYQI)
03:23PM 43.2536 -69.6189 223° Southwest 414 476 38,000  Level FlightAware ADS-B (KASH)
03:24PM 43.2280 -69.6503 223° Southwest 414 476 38,000  Level FlightAware ADS-B (KASH)
03:24PM 43.1840 -69.7045 222° Southwest 421 484 38,000  Level FlightAware ADS-B (CYQI)
03:24PM 43.1612 -69.7326 223° Southwest 415 478 38,000  Level FlightAware ADS-B (KASH)
03:25PM 43.1176 -69.7861 222° Southwest 421 484 38,000  Level FlightAware ADS-B (CYQI)
03:25PM 43.0708 -69.8433 222° Southwest 422 486 38,000  Level FlightAware ADS-B (CYQI)
03:26PM 43.0507 -69.8680 223° Southwest 416 479 38,000  Level FlightAware ADS-B (KASH)
03:26PM 43.0200 -69.9055 223° Southwest 417 480 38,000  Level FlightAware ADS-B (KASH)
03:27PM 42.9788 -69.9557 222° Southwest 421 484 38,000  Level FlightAware ADS-B (KBOS)
03:27PM 42.9345 -70.0097 223° Southwest 415 478 38,000  Level FlightAware ADS-B (KASH)
03:27PM 42.9071 -70.0430 223° Southwest 413 475 38,000  Level FlightAware ADS-B (KASH)
03:28PM 42.8682 -70.0902 222° Southwest 419 482 38,000  Level FlightAware ADS-B (CYQI)
03:28PM 42.8250 -70.1426 223° Southwest 413 475 38,000  Level FlightAware ADS-B (KASH)
03:29PM 42.7768 -70.2008 222° Southwest 420 483 38,000  Level FlightAware ADS-B (KBOS)
03:29PM 42.7331 -70.2535 222° Southwest 421 484 38,000  Level FlightAware ADS-B (KBOS)
03:30PM 42.6865 -70.3096 222° Southwest 422 486 38,000  Level FlightAware ADS-B (KBOS)
03:30PM 42.6354 -70.3711 222° Southwest 416 479 38,000  Level FlightAware ADS-B (KASH)
03:31PM 42.5885 -70.4273 222° Southwest 421 484 38,000  Level FlightAware ADS-B (CYQI)
03:31PM 42.5434 -70.4814 222° Southwest 426 490 38,000  Level FlightAware ADS-B (KASH)
03:32PM 42.5169 -70.5131 221° Southwest 427 491 38,000  Level FlightAware ADS-B (KASH)
03:32PM 42.4730 -70.5654 221° Southwest 428 493 38,000  Level FlightAware ADS-B (KBOS)
03:33PM 42.4247 -70.6228 221° Southwest 429 494 38,000  Level FlightAware ADS-B (KBOS)
03:33PM 42.3791 -70.6769 221° Southwest 432 497 38,000  Level FlightAware ADS-B (KBOS)
03:34PM 42.3333 -70.7312 221° Southwest 432 497 38,000  Level FlightAware ADS-B (KBOS)
03:34PM 42.2876 -70.7852 221° Southwest 428 493 38,000  Level FlightAware ADS-B (KBOS)
03:35PM 42.2399 -70.8416 221° Southwest 427 491 38,000  Level FlightAware ADS-B (ZSSL)
03:35PM 42.1913 -70.8988 221° Southwest 425 489 38,000  Level FlightAware ADS-B (KBOS)
03:36PM 42.1445 -70.9539 221° Southwest 422 486 38,000  Level FlightAware ADS-B (KBOS)
03:36PM 42.1018 -71.0041 221° Southwest 422 486 38,000  Level FlightAware ADS-B (KBOS)
03:37PM 42.0677 -71.0440 221° Southwest 422 486 38,000  Level FlightAware ADS-B (KOWD)
03:37PM 42.0486 -71.0664 222° Southwest 416 479 38,000  Level FlightAware ADS-B (KASH)
03:38PM 41.9998 -71.1234 221° Southwest 424 488 38,000  Level FlightAware ADS-B (KOWD)
03:38PM 41.9478 -71.1841 221° Southwest 424 488 38,000  Level FlightAware ADS-B (KOWD)
03:39PM 41.9017 -71.2376 221° Southwest 425 489 38,000  Level FlightAware ADS-B (KOWD)
03:39PM 41.8471 -71.3009 221° Southwest 426 490 38,000  Level FlightAware ADS-B (KASH)
03:40PM 41.8043 -71.3506 221° Southwest 426 490 38,000  Level FlightAware ADS-B (KASH)
03:40PM 41.7584 -71.4037 221° Southwest 424 488 38,000  Level FlightAware ADS-B (KASH)
03:41PM 41.7126 -71.4566 221° Southwest 424 488 38,000  Level FlightAware ADS-B (KASH)
03:41PM 41.6679 -71.5080 221° Southwest 425 489 38,000  Level FlightAware ADS-B (KASH)
03:42PM 41.6227 -71.5613 222° Southwest 425 489 38,000  Level FlightAware ADS-B (KOWD)
03:42PM 41.5765 -71.6159 222° Southwest 426 490 38,000  Level FlightAware ADS-B (KOWD)
03:44PM 41.5377 -71.6615 221° Southwest 430 495 38,000  Level FlightAware ADS-B (KOWD)
03:45PM 41.5377 -71.6615 221° Southwest 430 495 38,000  Level FlightAware ADS-B (KOWD)
03:46PM 41.2471 -71.9999 221° Southwest 432 497 38,000  Level FlightAware ADS-B (ZSSL)
03:48PM 41.1008 -72.1686 221° Southwest 429 494 38,000  Level FlightAware ADS-B
03:48PM 41.0295 -72.2504 221° Southwest 432 497 38,000  Level FlightAware ADS-B
03:49PM 40.9398 -72.3531 221° Southwest 432 497 38,000  Level FlightAware ADS-B
03:50PM 40.8881 -72.4111 221° Southwest 431 496 38,000  Level Washington Center
03:51PM 40.8253 -72.4822 221° Southwest 431 496 38,000  Level Boston Center
03:52PM 40.7339 -72.5856 221° Southwest 436 502 38,000  Level Boston Center
03:53PM 40.6408 -72.6919 221° Southwest 443 510 38,000  Level Boston Center
03:54PM 40.5481 -72.7969 221° Southwest 442 509 38,000  Level Boston Center
03:55PM 40.4567 -72.8992 220° Southwest 435 501 38,000  Level Boston Center
03:56PM 40.3667 -73.0006 221° Southwest 431 496 38,000  Level Boston Center
03:57PM 40.2761 -73.1022 221° Southwest 429 494 38,000  Level Boston Center
03:58PM 40.1856 -73.2014 220° Southwest 430 495 38,000  Level Boston Center
03:59PM 40.0767 -73.3214 220° Southwest 429 494 38,000  Level Boston Center
04:00PM 39.9858 -73.4225 220° Southwest 428 493 38,000  Level Boston Center
04:01PM 39.8917 -73.5242 220° Southwest 428 493 38,000  Level Boston Center
04:02PM 39.8006 -73.6264 221° Southwest 428 493 38,000  Level Boston Center
04:08PM 39.2827 -74.1834 220° Southwest 428 493 38,000  Level FlightAware ADS-B (KPHL)
04:08PM 39.2258 -74.2442 220° Southwest 429 494 38,000  Level FlightAware ADS-B (KPHL)
04:09PM 39.1569 -74.3175 220° Southwest 430 495 38,000  Level FlightAware ADS-B (KPHL)
04:10PM 39.0672 -74.4128 220° Southwest 428 493 38,000  Level FlightAware ADS-B (KPHL)
04:11PM 38.9467 -74.5402 220° Southwest 417 480 38,000  Level FlightAware ADS-B (KWWD)
04:12PM 38.8978 -74.5917 220° Southwest 423 487 38,000  Level FlightAware ADS-B (KWWD)
04:12PM 38.8187 -74.6748 220° Southwest 419 482 38,000  Level FlightAware ADS-B (KWWD)
04:13PM 38.7637 -74.7327 220° Southwest 418 481 38,000  Level FlightAware ADS-B (KWWD)
04:14PM 38.7411 -74.7564 219° Southwest 424 488 38,000  Level FlightAware ADS-B
04:14PM 38.7288 -74.7693 219° Southwest 425 489 38,000  Level FlightAware ADS-B
04:15PM 38.5691 -74.9156 211° Southwest 416 479 38,000  Level FlightAware ADS-B (KWWD)
04:16PM 38.4914 -74.9736 211° Southwest 416 479 38,000  Level FlightAware ADS-B (KWWD)
04:17PM 38.4058 -75.0358 211° Southwest 422 486 38,000  Level Washington Center
04:18PM 38.2925 -75.1192 210° Southwest 423 487 38,000  Level Washington Center
04:19PM 38.1897 -75.1944 210° Southwest 424 488 38,000  Level Washington Center
04:20PM 38.0875 -75.2700 210° Southwest 425 489 38,000  Level Washington Center
04:21PM 37.9844 -75.3464 210° Southwest 426 490 38,000  Level Washington Center
04:22PM 37.8808 -75.4231 210° Southwest 431 496 38,000  Level Washington Center
04:23PM 37.7789 -75.4978 210° Southwest 428 493 38,000  Level Washington Center
04:25PM 37.5519 -75.6622 206° Southwest 428 493 38,000  Level Washington Center
04:26PM 37.4503 -75.7369 210° Southwest 428 493 38,000  Level Washington Center
04:27PM 37.3478 -75.8103 210° Southwest 426 490 38,000  Level Washington Center
04:29PM 37.2447 -75.8847 210° Southwest 427 491 38,000  Level Washington Center
04:30PM 37.1225 -75.9725 210° Southwest 426 490 38,000  Level Washington Center
04:31PM 37.0206 -76.0467 210° Southwest 426 490 38,000  Level Washington Center
04:32PM 36.9231 -76.1150 209° Southwest 426 490 38,000  Level Washington Center
04:33PM 36.8192 -76.1883 209° Southwest 426 490 38,000  Level Washington Center
04:34PM 36.6978 -76.2736 209° Southwest 422 486 38,000  Level Washington Center
04:35PM 36.5928 -76.3483 210° Southwest 432 497 38,000  Level Washington Center
04:36PM 36.4889 -76.4194 209° Southwest 430 495 38,000  Level Washington Center
04:37PM 36.3825 -76.4933 209° Southwest 433 498 38,000  Level Washington Center
04:38PM 36.2772 -76.5664 209° Southwest 435 501 38,000  Level Washington Center
04:39PM 36.1522 -76.6533 209° Southwest 435 501 38,000  Level Washington Center
04:40PM 36.0475 -76.7253 209° Southwest 434 499 38,000  Level Washington Center
04:41PM 35.9439 -76.7964 209° Southwest 429 494 38,000  Level Washington Center
04:42PM 35.8431 -76.8669 210° Southwest 422 486 38,000  Level Washington Center
04:43PM 35.7403 -76.9375 209° Southwest 421 484 38,000  Level Washington Center
04:44PM 35.6283 -77.0153 209° Southwest 420 483 38,000  Level Washington Center
04:45PM 35.5244 -77.0856 209° Southwest 422 486 38,000  Level Washington Center
04:46PM 35.4217 -77.1556 209° Southwest 422 486 38,000  Level Washington Center
04:47PM 35.2975 -77.2392 209° Southwest 422 486 38,000  Level Washington Center
04:48PM 35.1947 -77.3106 210° Southwest 423 487 38,000  Level Washington Center
04:49PM 35.0914 -77.3806 209° Southwest 423 487 38,000  Level Washington Center
04:50PM 34.9883 -77.4486 208° Southwest 423 487 38,000  Level Washington Center
04:51PM 34.8850 -77.5183 209° Southwest 422 486 38,000  Level Washington Center
04:52PM 34.7733 -77.5936 209° Southwest 420 483 38,000  Level Washington Center
04:53PM 34.6714 -77.6619 209° Southwest 420 483 38,000  Level Washington Center
04:54PM 34.5694 -77.7297 209° Southwest 420 483 38,000  Level Washington Center
04:55PM 34.4681 -77.7967 209° Southwest 419 482 38,000  Level Washington Center
04:56PM 34.3419 -77.8739 207° Southwest 422 486 38,000  Level Washington Center
04:58PM 34.2336 -77.9081 195° South 431 496 38,000  Level Washington Center
04:59PM 34.1144 -77.9447 194° South 437 503 38,000  Level Washington Center
05:00PM 33.9944 -77.9808 194° South 441 507 38,000  Level Washington Center
05:01PM 33.8500 -78.0189 192° South 445 512 38,000  Level Washington Center
05:02PM 33.7317 -78.0533 194° South 445 512 38,000  Level Washington Center
05:03PM 33.6117 -78.0875 193° South 445 512 38,000  Level Washington Center
05:04PM 33.4911 -78.1228 194° South 445 512 38,000  Level Washington Center
05:05PM 33.3678 -78.1575 193° South 450 518 38,000  Level Jacksonville Center
05:06PM 33.2500 -78.1911 193° South 450 518 38,000  Level Jacksonville Center
05:07PM 33.1303 -78.2222 192° South 450 518 38,000  Level Jacksonville Center
05:08PM 33.0064 -78.2583 194° South 450 518 38,000  Level Jacksonville Center
05:09PM 32.8864 -78.2917 193° South 450 518 38,000  Level Jacksonville Center
05:10PM 32.7647 -78.3275 194° South 450 518 38,000  Level Jacksonville Center
05:11PM 32.6428 -78.3583 192° South 450 518 38,000  Level Jacksonville Center
05:12PM 32.5208 -78.3964 195° South 450 518 38,000  Level Jacksonville Center
05:13PM 32.3967 -78.4272 192° South 450 518 38,000  Level Jacksonville Center
05:14PM 32.2667 -78.4703 196° South 445 512 38,000  Level Jacksonville Center
05:15PM 32.1406 -78.5058 193° South 452 520 38,000  Level Jacksonville Center
05:16PM 32.0208 -78.5411 194° South 457 526 38,000  Level Jacksonville Center
05:17PM 31.8947 -78.5789 194° South 457 526 38,000  Level Jacksonville Center
05:18PM 31.7750 -78.6161 195° South 457 526 38,000  Level Jacksonville Center
05:19PM 31.6528 -78.6486 193° South 457 526 38,000  Level Jacksonville Center
05:20PM 31.5269 -78.6861 194° South 452 520 38,000  Level Jacksonville Center
05:21PM 31.4067 -78.7183 193° South 452 520 38,000  Level Jacksonville Center
05:22PM 31.2786 -78.7581 195° South 458 527 38,000  Level Jacksonville Center
05:23PM 31.1586 -78.7900 193° South 458 527 38,000  Level Jacksonville Center
05:24PM 31.0325 -78.8294 195° South 464 534 38,000  Level Jacksonville Center
05:25PM 30.9125 -78.8611 193° South 459 528 38,000  Level Jacksonville Center
05:26PM 30.7925 -78.8953 194° South 459 528 38,000  Level Jacksonville Center
05:27PM 30.6600 -78.9275 192° South 465 535 38,000  Level Jacksonville Center
05:27PM 30.5986 -78.9467 195° South 464 534 38,000  Level Miami Center
05:28PM 30.4792 -78.9806 194° South 469 540 38,000  Level Miami Center
05:29PM 30.3556 -79.0261 198° South 464 534 38,000  Level Miami Center
05:30PM 30.2403 -79.0717 199° South 457 526 38,000  Level Miami Center
05:31PM 30.1144 -79.1172 197° South 462 532 38,000  Level Miami Center
05:32PM 29.9989 -79.1722 202° Southwest 462 532 38,000  Level Miami Center
05:33PM 29.8753 -79.2125 196° South 462 532 38,000  Level Miami Center
05:34PM 29.7556 -79.2650 201° Southwest 462 532 38,000  Level Miami Center
05:35PM 29.6358 -79.3100 198° South 462 532 38,000  Level Miami Center
05:36PM 29.5183 -79.3597 200° South 461 531 38,000  Level Miami Center
05:43PM 28.7400 -79.6406 198° South 457 526 38,000  Level FlightAware ADS-B (KMCO)
05:44PM 28.5368 -79.7167 198° South 459 528 38,000  Level FlightAware ADS-B (KMCO)
05:45PM 28.4765 -79.7393 198° South 461 531 38,000  Level FlightAware ADS-B (KMCO)
05:46PM 28.3795 -79.7755 198° South 462 532 38,000  Level FlightAware ADS-B (KMCO)
05:46PM 28.3181 -79.7983 198° South 463 533 38,000  Level FlightAware ADS-B (KMCO)
05:47PM 28.2061 -79.8400 198° South 461 531 38,000  Level FlightAware ADS-B (KMCO)
05:48PM 28.1270 -79.8693 198° South 460 529 38,000  Level FlightAware ADS-B (KMCO)
05:48PM 28.0341 -79.9038 198° South 461 531 38,000  Level FlightAware ADS-B (KMCO)
05:49PM 27.9686 -79.9279 198° South 462 532 38,000  Level FlightAware ADS-B (KMCO)
05:49PM 27.9066 -79.9508 198° South 462 532 38,000  Level FlightAware ADS-B (KMCO)
05:50PM 27.8272 -79.9800 198° South 463 533 38,000  Level FlightAware ADS-B (KMCO)
05:51PM 27.7580 -80.0055 198° South 463 533 38,000  Level FlightAware ADS-B (KMCO)
05:51PM 27.6948 -80.0288 198° South 463 533 38,000  Level FlightAware ADS-B (KMCO)
05:52PM 27.6326 -80.0516 198° South 464 534 38,000  Level FlightAware ADS-B (KMCO)
05:52PM 27.5782 -80.0715 198° South 463 533 38,000  Level FlightAware ADS-B (KMCO)
05:53PM 27.4728 -80.1101 198° South 464 534 38,000  Level FlightAware ADS-B (KMCO)
05:54PM 27.4039 -80.1354 198° South 465 535 38,000  Level FlightAware ADS-B (KMCO)
05:54PM 27.3309 -80.1621 198° South 466 536 38,000  Level FlightAware ADS-B (KMCO)
05:55PM 27.2340 -80.1974 198° South 467 537 38,000  Level FlightAware ADS-B (KMCO)
05:55PM 27.1686 -80.2212 198° South 467 537 38,000  Level FlightAware ADS-B (KMCO)
05:56PM 27.0765 -80.2547 198° South 466 536 38,000  Level FlightAware ADS-B (RJTF)
05:57PM 27.0071 -80.2798 198° South 467 537 38,000  Level FlightAware ADS-B (KMCO)
05:58PM 26.9153 -80.3131 198° South 468 539 38,000  Level FlightAware ADS-B (RJTF)
05:58PM 26.8181 -80.3483 198° South 468 539 38,000  Level FlightAware ADS-B (RJTF)
05:59PM 26.7626 -80.3684 198° South 469 540 38,000  Level FlightAware ADS-B (RJTF)
05:59PM 26.6938 -80.3932 198° South 469 540 38,000  Level FlightAware ADS-B (RJTF)
06:00PM 26.6313 -80.4156 198° South 467 537 38,000  Level FlightAware ADS-B (RJTF)
06:00PM 26.5420 -80.4477 198° South 471 542 38,000  Level FlightAware ADS-B (RJTF)
06:01PM 26.4945 -80.4649 198° South 472 543 38,000  Level FlightAware ADS-B (RJTF)
06:02PM 26.3355 -80.5220 198° South 475 547 38,000  Level FlightAware ADS-B (KMCO)
06:03PM 26.2770 -80.5429 198° South 476 548 38,000  Level FlightAware ADS-B (KMCO)
06:04PM 26.1676 -80.5820 198° South 476 548 38,000  Level FlightAware ADS-B (RJTF)
06:04PM 26.0865 -80.6109 198° South 475 547 38,000  Level FlightAware ADS-B (RJTF)
06:05PM 25.9445 -80.6615 198° South 477 549 38,000  Level FlightAware ADS-B (RJTF)
06:06PM 25.8461 -80.7006 198° South 469 540 38,000  Level Miami Center
06:07PM 25.7047 -80.7514 198° South 475 547 38,000  Level Miami Center
06:08PM 25.5761 -80.7978 198° South 486 559 38,000  Level Miami Center
06:09PM 25.4456 -80.8419 197° South 486 559 38,000  Level Miami Center
06:10PM 25.3211 -80.8839 197° South 480 552 38,000  Level Miami Center
06:11PM 25.1967 -80.9303 199° South 480 552 38,000 -420 Level Miami Center
06:12PM 25.0700 -80.9742 197° South 480 552 37,200 -900 Descending Miami Center
06:13PM 24.9478 -81.0158 197° South 474 545 36,200 -1,020 Descending Miami Center
06:14PM 24.8233 -81.0597 198° South 469 540 35,200 -2,280 Descending Miami Center
06:15PM 24.6947 -81.0989 195° South 469 540 31,700 -2,760 Descending Miami Center
06:16PM 24.5647 -81.1194 188° South 469 540 29,700 -1,920 Descending Miami Center
06:17PM 24.4367 -81.1378 187° South 469 540 27,900 -1,860 Descending Miami Center
06:18PM 24.3169 -81.1611 190° South 458 527 26,000 -2,100 Descending Miami Center
06:19PM 24.1994 -81.1822 189° South 445 512 23,700 -2,100 Descending Miami Center
06:20PM 24.0861 -81.2056 191° South 428 493 21,800 -1,380 Descending Miami Center
06:21PM 23.9864 -81.2522 203° Southwest 412 474 21,000 -420 Descending Miami Center
06:22PM 23.9069 -81.3244 220° Southwest 382 440 21,000  Level Miami Center
06:24PM 23.7961 -81.4428 225° Southwest  Level FlightAware Approximate
06:31PM 23.2318 -82.1066 226° Southwest  Level FlightAware Approximate
06:32PM 23.1500 -82.2000 212° Southwest  Level FlightAware Approximate
06:33PM 23.0674 -82.2879 231° Southwest  Level FlightAware Approximate
06:34PM 22.9857 -82.3809 223° Southwest  Level FlightAware Approximate
06:35PM 22.9667 -82.4000 223° Southwest  Level FlightAware Approximate
06:36PM 22.9891 -82.4091 223° Southwest  Level Estimated
06:37PM 22.9891 -82.4091 223° Southwest  Level Estimated
06:38PM 22.9891 -82.4091 223° Southwest  Level Estimated
06:39PM 22.9891 -82.4091 223° Southwest  Level Estimated
06:40PM 22.9891 -82.4091 223° Southwest  Level Estimated
06:41PM 22.9891 -82.4091 223° Southwest  Level Estimated
06:42PM 22.9891 -82.4091 223° Southwest  Level Estimated
06:43PM 22.9891 -82.4091 223° Southwest  Level Estimated
06:44PM 22.9891 -82.4091 223° Southwest  Level Estimated
06:45PM 22.9891 -82.4091 223° Southwest  Level Estimated
06:46PM 22.9891 -82.4091 223° Southwest  Level Estimated
06:47PM 22.9891 -82.4091 223° Southwest  Level Estimated
06:48PM 22.9891 -82.4091 223° Southwest  Level Estimated
06:49PM 22.9891 -82.4091 223° Southwest  Level Estimated
06:50PM 22.9891 -82.4091 223° Southwest  Level Estimated
06:51PM 22.9891 -82.4091 223° Southwest  Level Estimated
06:52PM 22.9891 -82.4091 223° Southwest  Level Estimated
06:53PM 22.9891 -82.4091 223° Southwest  Level Estimated
06:54PM 22.9891 -82.4091 223° Southwest  Level Estimated
06:55PM 22.9891 -82.4091 223° Southwest  Level Estimated
06:56PM 22.9891 -82.4091 223° Southwest  Level Estimated